Terminal Aerodrome Forecast
Issued by NWS

Home | Current Version | Previous Version | Graphics & Text | Print | Product List | Glossary On
Versions: 1 2 3 4 5 6 7 8 9 10 11 12 13 14 15 16 17 18
000
FTUS43 KGRB 230520
TAFAUW
TAF
KAUW 230520Z 2306/2406 19011KT P6SM SCT090 WS013/23040KT
     FM231200 17007KT P6SM SKC
     FM231600 19013G20KT P6SM SKC
     FM240100 17008KT P6SM SCT035 BKN200
      TEMPO 2404/2406 BKN020=

USA.gov is the U.S. government's official web portal to all federal, state and local government web resources and services.